sensor_id;sensor_type;location;lat;lon;timestamp;P1;P2;P0
63305;PMS5003;50735;52.060;1.248;2023-01-25T00:00:25;46;39;
63305;PMS5003;50735;52.060;1.248;2023-01-25T00:02:53;39;31;
63305;PMS5003;50735;52.060;1.248;2023-01-25T00:05:20;50;41;
63305;PMS5003;50735;52.060;1.248;2023-01-25T00:07:46;41;41;
63305;PMS5003;50735;52.060;1.248;2023-01-25T00:10:13;44;37;
63305;PMS5003;50735;52.060;1.248;2023-01-25T00:12:40;52;48;
63305;PMS5003;50735;52.060;1.248;2023-01-25T00:15:07;49;38;
63305;PMS5003;50735;52.060;1.248;2023-01-25T00:17:34;47;39;
63305;PMS5003;50735;52.060;1.248;2023-01-25T00:20:00;43;38;
63305;PMS5003;50735;52.060;1.248;2023-01-25T00:22:28;57;43;
63305;PMS5003;50735;52.060;1.248;2023-01-25T00:24:55;42;35;
63305;PMS5003;50735;52.060;1.248;2023-01-25T00:27:22;40;38;
63305;PMS5003;50735;52.060;1.248;2023-01-25T00:29:49;47;40;
63305;PMS5003;50735;52.060;1.248;2023-01-25T00:32:36;42;38;
63305;PMS5003;50735;52.060;1.248;2023-01-25T00:35:12;45;38;
63305;PMS5003;50735;52.060;1.248;2023-01-25T00:37:41;44;34;
63305;PMS5003;50735;52.060;1.248;2023-01-25T00:40:10;50;37;
63305;PMS5003;50735;52.060;1.248;2023-01-25T00:42:38;53;45;
63305;PMS5003;50735;52.060;1.248;2023-01-25T00:45:05;50;39;
63305;PMS5003;50735;52.060;1.248;2023-01-25T00:47:33;48;41;
63305;PMS5003;50735;52.060;1.248;2023-01-25T00:49:59;51;47;
63305;PMS5003;50735;52.060;1.248;2023-01-25T00:52:26;51;44;
63305;PMS5003;50735;52.060;1.248;2023-01-25T00:54:54;45;38;
63305;PMS5003;50735;52.060;1.248;2023-01-25T00:57:21;42;39;
63305;PMS5003;50735;52.060;1.248;2023-01-25T00:59:48;43;41;
63305;PMS5003;50735;52.060;1.248;2023-01-25T01:02:15;47;39;
63305;PMS5003;50735;52.060;1.248;2023-01-25T01:04:42;38;30;
63305;PMS5003;50735;52.060;1.248;2023-01-25T01:07:10;39;34;
63305;PMS5003;50735;52.060;1.248;2023-01-25T01:09:38;36;32;
63305;PMS5003;50735;52.060;1.248;2023-01-25T01:12:05;42;33;
63305;PMS5003;50735;52.060;1.248;2023-01-25T01:14:32;56;45;
63305;PMS5003;50735;52.060;1.248;2023-01-25T01:16:59;39;38;
63305;PMS5003;50735;52.060;1.248;2023-01-25T01:19:26;51;43;
63305;PMS5003;50735;52.060;1.248;2023-01-25T01:21:53;57;40;
63305;PMS5003;50735;52.060;1.248;2023-01-25T01:24:19;47;41;
63305;PMS5003;50735;52.060;1.248;2023-01-25T01:26:46;53;47;
63305;PMS5003;50735;52.060;1.248;2023-01-25T01:29:13;58;42;
63305;PMS5003;50735;52.060;1.248;2023-01-25T01:31:39;49;40;
63305;PMS5003;50735;52.060;1.248;2023-01-25T01:34:06;37;35;
63305;PMS5003;50735;52.060;1.248;2023-01-25T01:36:37;58;42;
63305;PMS5003;50735;52.060;1.248;2023-01-25T01:39:04;44;40;
63305;PMS5003;50735;52.060;1.248;2023-01-25T01:41:30;51;45;
63305;PMS5003;50735;52.060;1.248;2023-01-25T01:43:57;51;44;
63305;PMS5003;50735;52.060;1.248;2023-01-25T01:46:26;45;41;
63305;PMS5003;50735;52.060;1.248;2023-01-25T01:48:57;48;38;
63305;PMS5003;50735;52.060;1.248;2023-01-25T01:51:31;50;43;
63305;PMS5003;50735;52.060;1.248;2023-01-25T01:54:07;48;39;
63305;PMS5003;50735;52.060;1.248;2023-01-25T01:56:39;42;39;
63305;PMS5003;50735;52.060;1.248;2023-01-25T01:59:12;46;42;
63305;PMS5003;50735;52.060;1.248;2023-01-25T02:01:39;43;38;
63305;PMS5003;50735;52.060;1.248;2023-01-25T02:04:07;50;43;
63305;PMS5003;50735;52.060;1.248;2023-01-25T02:06:38;56;48;
63305;PMS5003;50735;52.060;1.248;2023-01-25T02:09:11;39;38;
63305;PMS5003;50735;52.060;1.248;2023-01-25T02:11:41;55;44;
63305;PMS5003;50735;52.060;1.248;2023-01-25T02:14:08;48;40;
63305;PMS5003;50735;52.060;1.248;2023-01-25T02:16:35;46;38;
63305;PMS5003;50735;52.060;1.248;2023-01-25T02:19:01;52;42;
63305;PMS5003;50735;52.060;1.248;2023-01-25T02:21:30;53;42;
63305;PMS5003;50735;52.060;1.248;2023-01-25T02:24:04;44;39;
63305;PMS5003;50735;52.060;1.248;2023-01-25T02:26:36;50;42;
63305;PMS5003;50735;52.060;1.248;2023-01-25T02:29:04;43;42;
63305;PMS5003;50735;52.060;1.248;2023-01-25T02:31:33;51;44;
63305;PMS5003;50735;52.060;1.248;2023-01-25T02:34:00;51;46;
63305;PMS5003;50735;52.060;1.248;2023-01-25T02:36:27;48;43;
63305;PMS5003;50735;52.060;1.248;2023-01-25T02:38:57;56;46;
63305;PMS5003;50735;52.060;1.248;2023-01-25T02:41:29;43;38;
63305;PMS5003;50735;52.060;1.248;2023-01-25T02:43:59;46;45;
63305;PMS5003;50735;52.060;1.248;2023-01-25T02:46:30;46;39;
63305;PMS5003;50735;52.060;1.248;2023-01-25T02:48:58;40;36;
63305;PMS5003;50735;52.060;1.248;2023-01-25T02:51:27;37;33;
63305;PMS5003;50735;52.060;1.248;2023-01-25T02:53:56;47;39;
63305;PMS5003;50735;52.060;1.248;2023-01-25T02:56:23;39;39;
63305;PMS5003;50735;52.060;1.248;2023-01-25T02:58:50;48;40;
63305;PMS5003;50735;52.060;1.248;2023-01-25T03:01:18;43;36;
63305;PMS5003;50735;52.060;1.248;2023-01-25T03:03:45;45;33;
63305;PMS5003;50735;52.060;1.248;2023-01-25T03:06:12;44;35;
63305;PMS5003;50735;52.060;1.248;2023-01-25T03:08:40;50;37;
63305;PMS5003;50735;52.060;1.248;2023-01-25T03:11:08;44;40;
63305;PMS5003;50735;52.060;1.248;2023-01-25T03:13:35;41;35;
63305;PMS5003;50735;52.060;1.248;2023-01-25T03:16:03;37;33;
63305;PMS5003;50735;52.060;1.248;2023-01-25T03:18:31;47;41;
63305;PMS5003;50735;52.060;1.248;2023-01-25T03:21:07;44;36;
63305;PMS5003;50735;52.060;1.248;2023-01-25T03:23:36;42;34;
63305;PMS5003;50735;52.060;1.248;2023-01-25T03:26:05;42;38;
63305;PMS5003;50735;52.060;1.248;2023-01-25T03:28:33;48;40;
63305;PMS5003;50735;52.060;1.248;2023-01-25T03:31:00;60;46;
63305;PMS5003;50735;52.060;1.248;2023-01-25T03:33:27;39;33;
63305;PMS5003;50735;52.060;1.248;2023-01-25T03:35:55;47;34;
63305;PMS5003;50735;52.060;1.248;2023-01-25T03:38:22;42;34;
63305;PMS5003;50735;52.060;1.248;2023-01-25T03:40:49;44;40;
63305;PMS5003;50735;52.060;1.248;2023-01-25T03:43:16;49;42;
63305;PMS5003;50735;52.060;1.248;2023-01-25T03:45:44;49;40;
63305;PMS5003;50735;52.060;1.248;2023-01-25T03:48:11;49;41;
63305;PMS5003;50735;52.060;1.248;2023-01-25T03:50:37;56;39;
63305;PMS5003;50735;52.060;1.248;2023-01-25T03:53:04;50;38;
63305;PMS5003;50735;52.060;1.248;2023-01-25T03:55:31;56;41;
63305;PMS5003;50735;52.060;1.248;2023-01-25T03:57:58;54;42;
63305;PMS5003;50735;52.060;1.248;2023-01-25T04:00:25;60;47;
63305;PMS5003;50735;52.060;1.248;2023-01-25T04:02:52;47;42;
63305;PMS5003;50735;52.060;1.248;2023-01-25T04:05:19;58;45;
63305;PMS5003;50735;52.060;1.248;2023-01-25T04:07:45;48;43;
63305;PMS5003;50735;52.060;1.248;2023-01-25T04:10:12;68;47;
63305;PMS5003;50735;52.060;1.248;2023-01-25T04:12:39;46;40;
63305;PMS5003;50735;52.060;1.248;2023-01-25T04:15:06;53;47;
63305;PMS5003;50735;52.060;1.248;2023-01-25T04:17:33;55;45;
63305;PMS5003;50735;52.060;1.248;2023-01-25T04:20:00;57;45;
63305;PMS5003;50735;52.060;1.248;2023-01-25T04:22:27;41;38;
63305;PMS5003;50735;52.060;1.248;2023-01-25T04:24:54;62;46;
63305;PMS5003;50735;52.060;1.248;2023-01-25T04:27:20;50;46;
63305;PMS5003;50735;52.060;1.248;2023-01-25T04:29:47;58;45;
63305;PMS5003;50735;52.060;1.248;2023-01-25T04:32:14;50;43;
63305;PMS5003;50735;52.060;1.248;2023-01-25T04:34:41;48;41;
63305;PMS5003;50735;52.060;1.248;2023-01-25T04:37:08;55;45;
63305;PMS5003;50735;52.060;1.248;2023-01-25T04:39:35;57;47;
63305;PMS5003;50735;52.060;1.248;2023-01-25T04:42:01;58;41;
63305;PMS5003;50735;52.060;1.248;2023-01-25T04:44:28;63;51;
63305;PMS5003;50735;52.060;1.248;2023-01-25T04:46:55;58;43;
63305;PMS5003;50735;52.060;1.248;2023-01-25T04:49:22;58;48;
63305;PMS5003;50735;52.060;1.248;2023-01-25T04:51:49;44;38;
63305;PMS5003;50735;52.060;1.248;2023-01-25T04:54:16;59;48;
63305;PMS5003;50735;52.060;1.248;2023-01-25T04:56:43;61;46;
63305;PMS5003;50735;52.060;1.248;2023-01-25T04:59:10;49;46;
63305;PMS5003;50735;52.060;1.248;2023-01-25T05:01:36;58;53;
63305;PMS5003;50735;52.060;1.248;2023-01-25T05:04:04;54;41;
63305;PMS5003;50735;52.060;1.248;2023-01-25T05:06:31;51;40;
63305;PMS5003;50735;52.060;1.248;2023-01-25T05:08:58;57;46;
63305;PMS5003;50735;52.060;1.248;2023-01-25T05:11:25;51;42;
63305;PMS5003;50735;52.060;1.248;2023-01-25T05:13:52;59;49;
63305;PMS5003;50735;52.060;1.248;2023-01-25T05:16:18;53;45;
63305;PMS5003;50735;52.060;1.248;2023-01-25T05:18:45;47;39;
63305;PMS5003;50735;52.060;1.248;2023-01-25T05:21:12;63;52;
63305;PMS5003;50735;52.060;1.248;2023-01-25T05:23:39;66;51;
63305;PMS5003;50735;52.060;1.248;2023-01-25T05:26:06;52;45;
63305;PMS5003;50735;52.060;1.248;2023-01-25T05:28:33;46;40;
63305;PMS5003;50735;52.060;1.248;2023-01-25T05:31:02;64;47;
63305;PMS5003;50735;52.060;1.248;2023-01-25T05:33:29;57;44;
63305;PMS5003;50735;52.060;1.248;2023-01-25T05:35:56;52;42;
63305;PMS5003;50735;52.060;1.248;2023-01-25T05:38:23;59;47;
63305;PMS5003;50735;52.060;1.248;2023-01-25T05:40:50;60;46;
63305;PMS5003;50735;52.060;1.248;2023-01-25T05:43:16;49;39;
63305;PMS5003;50735;52.060;1.248;2023-01-25T05:45:43;56;46;
63305;PMS5003;50735;52.060;1.248;2023-01-25T05:48:17;48;42;
63305;PMS5003;50735;52.060;1.248;2023-01-25T05:50:44;55;46;
63305;PMS5003;50735;52.060;1.248;2023-01-25T05:53:11;51;43;
63305;PMS5003;50735;52.060;1.248;2023-01-25T05:55:38;49;38;
63305;PMS5003;50735;52.060;1.248;2023-01-25T05:58:05;56;48;
63305;PMS5003;50735;52.060;1.248;2023-01-25T06:00:32;52;43;
63305;PMS5003;50735;52.060;1.248;2023-01-25T06:03:00;52;48;
63305;PMS5003;50735;52.060;1.248;2023-01-25T06:05:27;55;54;
63305;PMS5003;50735;52.060;1.248;2023-01-25T06:07:54;52;44;
63305;PMS5003;50735;52.060;1.248;2023-01-25T06:10:21;53;45;
63305;PMS5003;50735;52.060;1.248;2023-01-25T06:12:48;53;46;
63305;PMS5003;50735;52.060;1.248;2023-01-25T06:15:15;49;41;
63305;PMS5003;50735;52.060;1.248;2023-01-25T06:17:42;55;44;
63305;PMS5003;50735;52.060;1.248;2023-01-25T06:20:09;59;42;
63305;PMS5003;50735;52.060;1.248;2023-01-25T06:22:36;48;42;
63305;PMS5003;50735;52.060;1.248;2023-01-25T06:25:04;42;35;
63305;PMS5003;50735;52.060;1.248;2023-01-25T06:27:31;48;40;
63305;PMS5003;50735;52.060;1.248;2023-01-25T06:29:58;44;39;
63305;PMS5003;50735;52.060;1.248;2023-01-25T06:32:24;52;44;
63305;PMS5003;50735;52.060;1.248;2023-01-25T06:34:57;58;45;
63305;PMS5003;50735;52.060;1.248;2023-01-25T06:37:24;52;49;
63305;PMS5003;50735;52.060;1.248;2023-01-25T06:39:51;61;46;
63305;PMS5003;50735;52.060;1.248;2023-01-25T06:42:18;61;51;
63305;PMS5003;50735;52.060;1.248;2023-01-25T06:44:45;57;47;
63305;PMS5003;50735;52.060;1.248;2023-01-25T06:47:12;67;56;
63305;PMS5003;50735;52.060;1.248;2023-01-25T06:49:38;53;47;
63305;PMS5003;50735;52.060;1.248;2023-01-25T06:52:06;59;50;
63305;PMS5003;50735;52.060;1.248;2023-01-25T06:54:33;50;39;
63305;PMS5003;50735;52.060;1.248;2023-01-25T06:57:00;62;48;
63305;PMS5003;50735;52.060;1.248;2023-01-25T06:59:27;57;50;
63305;PMS5003;50735;52.060;1.248;2023-01-25T07:01:54;60;44;
63305;PMS5003;50735;52.060;1.248;2023-01-25T07:04:20;68;52;
63305;PMS5003;50735;52.060;1.248;2023-01-25T07:06:47;71;52;
63305;PMS5003;50735;52.060;1.248;2023-01-25T07:09:14;70;58;
63305;PMS5003;50735;52.060;1.248;2023-01-25T07:11:41;78;63;
63305;PMS5003;50735;52.060;1.248;2023-01-25T07:14:08;71;59;
63305;PMS5003;50735;52.060;1.248;2023-01-25T07:16:36;58;53;
63305;PMS5003;50735;52.060;1.248;2023-01-25T07:19:03;73;61;
63305;PMS5003;50735;52.060;1.248;2023-01-25T07:21:30;66;55;
63305;PMS5003;50735;52.060;1.248;2023-01-25T07:23:58;66;54;
63305;PMS5003;50735;52.060;1.248;2023-01-25T07:26:26;68;57;
63305;PMS5003;50735;52.060;1.248;2023-01-25T07:28:53;67;55;
63305;PMS5003;50735;52.060;1.248;2023-01-25T07:31:23;58;48;
63305;PMS5003;50735;52.060;1.248;2023-01-25T07:33:51;58;49;
63305;PMS5003;50735;52.060;1.248;2023-01-25T07:36:20;68;55;
63305;PMS5003;50735;52.060;1.248;2023-01-25T07:38:48;64;54;
63305;PMS5003;50735;52.060;1.248;2023-01-25T07:41:18;63;50;
63305;PMS5003;50735;52.060;1.248;2023-01-25T07:43:45;64;58;
63305;PMS5003;50735;52.060;1.248;2023-01-25T07:46:12;68;53;
63305;PMS5003;50735;52.060;1.248;2023-01-25T07:48:40;70;57;
63305;PMS5003;50735;52.060;1.248;2023-01-25T07:51:11;67;52;
63305;PMS5003;50735;52.060;1.248;2023-01-25T07:53:39;78;62;
63305;PMS5003;50735;52.060;1.248;2023-01-25T07:56:07;65;61;
63305;PMS5003;50735;52.060;1.248;2023-01-25T07:58:34;70;61;
63305;PMS5003;50735;52.060;1.248;2023-01-25T08:05:04;72;54;
63305;PMS5003;50735;52.060;1.248;2023-01-25T08:07:30;78;61;
63305;PMS5003;50735;52.060;1.248;2023-01-25T08:09:57;75;61;
63305;PMS5003;50735;52.060;1.248;2023-01-25T08:12:24;69;59;
63305;PMS5003;50735;52.060;1.248;2023-01-25T08:14:50;78;61;
63305;PMS5003;50735;52.060;1.248;2023-01-25T08:17:17;67;59;
63305;PMS5003;50735;52.060;1.248;2023-01-25T08:19:45;69;58;
63305;PMS5003;50735;52.060;1.248;2023-01-25T08:22:11;57;51;
63305;PMS5003;50735;52.060;1.248;2023-01-25T08:24:37;59;52;
63305;PMS5003;50735;52.060;1.248;2023-01-25T08:27:05;58;45;
63305;PMS5003;50735;52.060;1.248;2023-01-25T08:29:31;58;53;
63305;PMS5003;50735;52.060;1.248;2023-01-25T08:31:58;60;45;
63305;PMS5003;50735;52.060;1.248;2023-01-25T08:34:25;61;49;
63305;PMS5003;50735;52.060;1.248;2023-01-25T08:36:51;50;41;
63305;PMS5003;50735;52.060;1.248;2023-01-25T08:39:19;44;38;
63305;PMS5003;50735;52.060;1.248;2023-01-25T08:41:45;47;36;
63305;PMS5003;50735;52.060;1.248;2023-01-25T08:44:12;44;33;
63305;PMS5003;50735;52.060;1.248;2023-01-25T08:46:39;32;28;
63305;PMS5003;50735;52.060;1.248;2023-01-25T08:49:06;48;40;
63305;PMS5003;50735;52.060;1.248;2023-01-25T08:51:33;38;34;
63305;PMS5003;50735;52.060;1.248;2023-01-25T08:54:01;45;38;
63305;PMS5003;50735;52.060;1.248;2023-01-25T08:56:29;43;30;
63305;PMS5003;50735;52.060;1.248;2023-01-25T08:58:56;40;33;
63305;PMS5003;50735;52.060;1.248;2023-01-25T09:01:23;53;41;
63305;PMS5003;50735;52.060;1.248;2023-01-25T09:03:50;42;39;
63305;PMS5003;50735;52.060;1.248;2023-01-25T09:06:17;43;38;
63305;PMS5003;50735;52.060;1.248;2023-01-25T09:08:44;42;39;
63305;PMS5003;50735;52.060;1.248;2023-01-25T09:11:12;39;32;
63305;PMS5003;50735;52.060;1.248;2023-01-25T09:13:40;46;40;
63305;PMS5003;50735;52.060;1.248;2023-01-25T09:16:08;37;33;
63305;PMS5003;50735;52.060;1.248;2023-01-25T09:18:38;39;33;
63305;PMS5003;50735;52.060;1.248;2023-01-25T09:21:06;44;34;
63305;PMS5003;50735;52.060;1.248;2023-01-25T09:23:34;39;30;
63305;PMS5003;50735;52.060;1.248;2023-01-25T09:26:01;38;31;
63305;PMS5003;50735;52.060;1.248;2023-01-25T09:28:29;56;39;
63305;PMS5003;50735;52.060;1.248;2023-01-25T09:31:00;51;38;
63305;PMS5003;50735;52.060;1.248;2023-01-25T09:33:28;41;36;
63305;PMS5003;50735;52.060;1.248;2023-01-25T09:35:58;40;32;
63305;PMS5003;50735;52.060;1.248;2023-01-25T09:38:25;36;28;
63305;PMS5003;50735;52.060;1.248;2023-01-25T09:40:55;46;37;
63305;PMS5003;50735;52.060;1.248;2023-01-25T09:43:34;39;31;
63305;PMS5003;50735;52.060;1.248;2023-01-25T09:46:16;41;33;
63305;PMS5003;50735;52.060;1.248;2023-01-25T09:48:51;40;33;
63305;PMS5003;50735;52.060;1.248;2023-01-25T09:51:28;42;32;
63305;PMS5003;50735;52.060;1.248;2023-01-25T09:54:11;42;28;
63305;PMS5003;50735;52.060;1.248;2023-01-25T09:56:39;32;27;
63305;PMS5003;50735;52.060;1.248;2023-01-25T09:59:09;42;31;
63305;PMS5003;50735;52.060;1.248;2023-01-25T10:01:41;44;34;
63305;PMS5003;50735;52.060;1.248;2023-01-25T10:04:14;33;31;
63305;PMS5003;50735;52.060;1.248;2023-01-25T10:06:45;40;32;
63305;PMS5003;50735;52.060;1.248;2023-01-25T10:09:19;40;31;
63305;PMS5003;50735;52.060;1.248;2023-01-25T10:11:52;37;36;
63305;PMS5003;50735;52.060;1.248;2023-01-25T10:14:18;39;30;
63305;PMS5003;50735;52.060;1.248;2023-01-25T10:16:50;39;24;
63305;PMS5003;50735;52.060;1.248;2023-01-25T10:19:30;38;31;
63305;PMS5003;50735;52.060;1.248;2023-01-25T10:22:10;45;35;
63305;PMS5003;50735;52.060;1.248;2023-01-25T10:24:46;26;22;
63305;PMS5003;50735;52.060;1.248;2023-01-25T10:27:27;37;34;
63305;PMS5003;50735;52.060;1.248;2023-01-25T10:30:02;48;38;
63305;PMS5003;50735;52.060;1.248;2023-01-25T10:32:44;40;34;
63305;PMS5003;50735;52.060;1.248;2023-01-25T10:35:13;39;26;
63305;PMS5003;50735;52.060;1.248;2023-01-25T10:37:42;34;31;
63305;PMS5003;50735;52.060;1.248;2023-01-25T10:40:13;31;27;
63305;PMS5003;50735;52.060;1.248;2023-01-25T10:42:44;40;31;
63305;PMS5003;50735;52.060;1.248;2023-01-25T10:45:14;34;25;
63305;PMS5003;50735;52.060;1.248;2023-01-25T10:47:41;28;25;
63305;PMS5003;50735;52.060;1.248;2023-01-25T10:50:41;41;31;
63305;PMS5003;50735;52.060;1.248;2023-01-25T10:53:18;42;33;
63305;PMS5003;50735;52.060;1.248;2023-01-25T10:56:13;41;33;
63305;PMS5003;50735;52.060;1.248;2023-01-25T10:58:48;41;33;
63305;PMS5003;50735;52.060;1.248;2023-01-25T11:01:25;26;26;
63305;PMS5003;50735;52.060;1.248;2023-01-25T11:03:55;32;28;
63305;PMS5003;50735;52.060;1.248;2023-01-25T11:06:30;32;25;
63305;PMS5003;50735;52.060;1.248;2023-01-25T11:09:00;34;31;
63305;PMS5003;50735;52.060;1.248;2023-01-25T11:11:30;28;25;
63305;PMS5003;50735;52.060;1.248;2023-01-25T11:14:00;35;29;
63305;PMS5003;50735;52.060;1.248;2023-01-25T11:16:42;42;32;
63305;PMS5003;50735;52.060;1.248;2023-01-25T11:19:22;47;28;
63305;PMS5003;50735;52.060;1.248;2023-01-25T11:21:52;38;25;
63305;PMS5003;50735;52.060;1.248;2023-01-25T11:24:20;41;31;
63305;PMS5003;50735;52.060;1.248;2023-01-25T11:27:09;47;34;
63305;PMS5003;50735;52.060;1.248;2023-01-25T11:29:38;29;24;
63305;PMS5003;50735;52.060;1.248;2023-01-25T11:32:12;37;29;
63305;PMS5003;50735;52.060;1.248;2023-01-25T11:34:42;41;33;
63305;PMS5003;50735;52.060;1.248;2023-01-25T11:37:14;43;35;
63305;PMS5003;50735;52.060;1.248;2023-01-25T11:39:53;40;36;
63305;PMS5003;50735;52.060;1.248;2023-01-25T11:42:31;33;30;
63305;PMS5003;50735;52.060;1.248;2023-01-25T11:45:16;43;32;
63305;PMS5003;50735;52.060;1.248;2023-01-25T11:48:33;44;34;
63305;PMS5003;50735;52.060;1.248;2023-01-25T11:51:17;42;35;
63305;PMS5003;50735;52.060;1.248;2023-01-25T11:53:55;44;33;
63305;PMS5003;50735;52.060;1.248;2023-01-25T11:56:35;41;34;
63305;PMS5003;50735;52.060;1.248;2023-01-25T11:59:18;43;31;
63305;PMS5003;50735;52.060;1.248;2023-01-25T12:02:00;35;27;
63305;PMS5003;50735;52.060;1.248;2023-01-25T12:04:44;46;34;
63305;PMS5003;50735;52.060;1.248;2023-01-25T12:07:24;42;32;
63305;PMS5003;50735;52.060;1.248;2023-01-25T12:10:11;53;41;
63305;PMS5003;50735;52.060;1.248;2023-01-25T12:12:50;39;34;
63305;PMS5003;50735;52.060;1.248;2023-01-25T12:15:30;49;41;
63305;PMS5003;50735;52.060;1.248;2023-01-25T12:18:11;43;38;
63305;PMS5003;50735;52.060;1.248;2023-01-25T12:20:59;39;33;
63305;PMS5003;50735;52.060;1.248;2023-01-25T12:23:35;33;27;
63305;PMS5003;50735;52.060;1.248;2023-01-25T12:26:17;35;33;
63305;PMS5003;50735;52.060;1.248;2023-01-25T12:28:48;41;34;
63305;PMS5003;50735;52.060;1.248;2023-01-25T12:31:20;43;40;
63305;PMS5003;50735;52.060;1.248;2023-01-25T12:33:53;47;35;
63305;PMS5003;50735;52.060;1.248;2023-01-25T12:36:26;55;41;
63305;PMS5003;50735;52.060;1.248;2023-01-25T12:38:57;50;43;
63305;PMS5003;50735;52.060;1.248;2023-01-25T12:41:30;54;37;
63305;PMS5003;50735;52.060;1.248;2023-01-25T12:44:07;48;40;
63305;PMS5003;50735;52.060;1.248;2023-01-25T12:46:42;42;37;
63305;PMS5003;50735;52.060;1.248;2023-01-25T12:49:17;43;38;
63305;PMS5003;50735;52.060;1.248;2023-01-25T12:51:50;50;41;
63305;PMS5003;50735;52.060;1.248;2023-01-25T12:54:20;39;31;
63305;PMS5003;50735;52.060;1.248;2023-01-25T12:56:54;56;37;
63305;PMS5003;50735;52.060;1.248;2023-01-25T12:59:31;47;38;
63305;PMS5003;50735;52.060;1.248;2023-01-25T13:02:07;34;26;
63305;PMS5003;50735;52.060;1.248;2023-01-25T13:04:55;52;43;
63305;PMS5003;50735;52.060;1.248;2023-01-25T13:07:29;54;45;
63305;PMS5003;50735;52.060;1.248;2023-01-25T13:10:04;50;41;
63305;PMS5003;50735;52.060;1.248;2023-01-25T13:12:57;56;40;
63305;PMS5003;50735;52.060;1.248;2023-01-25T13:15:34;54;40;
63305;PMS5003;50735;52.060;1.248;2023-01-25T13:18:21;52;39;
63305;PMS5003;50735;52.060;1.248;2023-01-25T13:21:02;43;32;
63305;PMS5003;50735;52.060;1.248;2023-01-25T13:23:34;42;39;
63305;PMS5003;50735;52.060;1.248;2023-01-25T13:27:22;50;42;
63305;PMS5003;50735;52.060;1.248;2023-01-25T13:29:53;47;29;
63305;PMS5003;50735;52.060;1.248;2023-01-25T13:32:54;35;32;
63305;PMS5003;50735;52.060;1.248;2023-01-25T13:35:25;42;34;
63305;PMS5003;50735;52.060;1.248;2023-01-25T13:38:41;41;36;
63305;PMS5003;50735;52.060;1.248;2023-01-25T13:41:12;41;33;
63305;PMS5003;50735;52.060;1.248;2023-01-25T13:43:41;44;31;
63305;PMS5003;50735;52.060;1.248;2023-01-25T13:46:13;41;32;
63305;PMS5003;50735;52.060;1.248;2023-01-25T13:48:44;35;28;
63305;PMS5003;50735;52.060;1.248;2023-01-25T13:51:15;41;33;
63305;PMS5003;50735;52.060;1.248;2023-01-25T13:53:53;40;30;
63305;PMS5003;50735;52.060;1.248;2023-01-25T13:56:24;34;30;
63305;PMS5003;50735;52.060;1.248;2023-01-25T13:58:54;33;24;
63305;PMS5003;50735;52.060;1.248;2023-01-25T14:01:20;33;26;
63305;PMS5003;50735;52.060;1.248;2023-01-25T14:03:48;35;33;
63305;PMS5003;50735;52.060;1.248;2023-01-25T14:06:18;40;26;
63305;PMS5003;50735;52.060;1.248;2023-01-25T14:08:48;43;34;
63305;PMS5003;50735;52.060;1.248;2023-01-25T14:11:17;42;32;
63305;PMS5003;50735;52.060;1.248;2023-01-25T14:14:01;35;30;
63305;PMS5003;50735;52.060;1.248;2023-01-25T14:16:41;25;21;
63305;PMS5003;50735;52.060;1.248;2023-01-25T14:19:26;32;26;
63305;PMS5003;50735;52.060;1.248;2023-01-25T14:22:11;42;30;
63305;PMS5003;50735;52.060;1.248;2023-01-25T14:24:43;58;50;
63305;PMS5003;50735;52.060;1.248;2023-01-25T14:27:11;32;25;
63305;PMS5003;50735;52.060;1.248;2023-01-25T14:29:40;37;27;
63305;PMS5003;50735;52.060;1.248;2023-01-25T14:32:13;43;32;
63305;PMS5003;50735;52.060;1.248;2023-01-25T14:34:43;26;23;
63305;PMS5003;50735;52.060;1.248;2023-01-25T14:37:13;27;23;
63305;PMS5003;50735;52.060;1.248;2023-01-25T14:39:42;33;26;
63305;PMS5003;50735;52.060;1.248;2023-01-25T14:42:09;35;27;
63305;PMS5003;50735;52.060;1.248;2023-01-25T14:44:37;40;28;
63305;PMS5003;50735;52.060;1.248;2023-01-25T14:47:21;26;23;
63305;PMS5003;50735;52.060;1.248;2023-01-25T14:49:54;30;26;
63305;PMS5003;50735;52.060;1.248;2023-01-25T14:52:43;30;23;
63305;PMS5003;50735;52.060;1.248;2023-01-25T14:55:11;34;28;
63305;PMS5003;50735;52.060;1.248;2023-01-25T14:57:39;26;22;
63305;PMS5003;50735;52.060;1.248;2023-01-25T15:00:16;26;23;
63305;PMS5003;50735;52.060;1.248;2023-01-25T15:02:47;35;26;
63305;PMS5003;50735;52.060;1.248;2023-01-25T15:05:17;37;29;
63305;PMS5003;50735;52.060;1.248;2023-01-25T15:07:47;35;27;
63305;PMS5003;50735;52.060;1.248;2023-01-25T15:10:18;36;27;
63305;PMS5003;50735;52.060;1.248;2023-01-25T15:12:56;35;30;
63305;PMS5003;50735;52.060;1.248;2023-01-25T15:15:26;35;24;
63305;PMS5003;50735;52.060;1.248;2023-01-25T15:17:54;47;31;
63305;PMS5003;50735;52.060;1.248;2023-01-25T15:20:29;41;36;
63305;PMS5003;50735;52.060;1.248;2023-01-25T15:22:59;41;30;
63305;PMS5003;50735;52.060;1.248;2023-01-25T15:25:27;32;27;
63305;PMS5003;50735;52.060;1.248;2023-01-25T15:27:55;37;30;
63305;PMS5003;50735;52.060;1.248;2023-01-25T15:30:21;56;35;
63305;PMS5003;50735;52.060;1.248;2023-01-25T15:32:48;47;41;
63305;PMS5003;50735;52.060;1.248;2023-01-25T15:35:16;35;30;
63305;PMS5003;50735;52.060;1.248;2023-01-25T15:37:45;46;37;
63305;PMS5003;50735;52.060;1.248;2023-01-25T15:40:13;37;32;
63305;PMS5003;50735;52.060;1.248;2023-01-25T15:42:41;39;30;
63305;PMS5003;50735;52.060;1.248;2023-01-25T15:45:08;38;34;
63305;PMS5003;50735;52.060;1.248;2023-01-25T15:47:35;39;35;
63305;PMS5003;50735;52.060;1.248;2023-01-25T15:50:04;40;30;
63305;PMS5003;50735;52.060;1.248;2023-01-25T15:52:42;73;59;
63305;PMS5003;50735;52.060;1.248;2023-01-25T15:55:10;111;94;
63305;PMS5003;50735;52.060;1.248;2023-01-25T15:57:38;40;31;
63305;PMS5003;50735;52.060;1.248;2023-01-25T16:00:13;31;25;
63305;PMS5003;50735;52.060;1.248;2023-01-25T16:00:14;30;27;
63305;PMS5003;50735;52.060;1.248;2023-01-25T16:02:42;41;38;
63305;PMS5003;50735;52.060;1.248;2023-01-25T16:05:09;35;29;
63305;PMS5003;50735;52.060;1.248;2023-01-25T16:07:36;32;28;
63305;PMS5003;50735;52.060;1.248;2023-01-25T16:10:04;33;28;
63305;PMS5003;50735;52.060;1.248;2023-01-25T16:12:31;41;31;
63305;PMS5003;50735;52.060;1.248;2023-01-25T16:14:58;40;37;
63305;PMS5003;50735;52.060;1.248;2023-01-25T16:17:25;37;30;
63305;PMS5003;50735;52.060;1.248;2023-01-25T16:19:52;32;27;
63305;PMS5003;50735;52.060;1.248;2023-01-25T16:22:19;38;27;
63305;PMS5003;50735;52.060;1.248;2023-01-25T16:24:45;41;30;
63305;PMS5003;50735;52.060;1.248;2023-01-25T16:27:13;42;35;
63305;PMS5003;50735;52.060;1.248;2023-01-25T16:29:42;49;39;
63305;PMS5003;50735;52.060;1.248;2023-01-25T16:32:08;38;38;
63305;PMS5003;50735;52.060;1.248;2023-01-25T16:34:36;33;32;
63305;PMS5003;50735;52.060;1.248;2023-01-25T16:37:02;38;33;
63305;PMS5003;50735;52.060;1.248;2023-01-25T16:39:29;42;33;
63305;PMS5003;50735;52.060;1.248;2023-01-25T16:41:56;45;32;